Time;durP1;ratioP1;P1;durP2;ratioP2;P2;SDS_P1;SDS_P2;PMS_P1;PMS_P2;Temp;Humidity;BMP_temperature;BMP_pressure;BME280_temperature;BME280_humidity;BME280_pressure;Samples;Min_cycle;Max_cycle;Signal;HPM_P1;HPM_P2
2021/05/26 05:31:34;;;;;;;18.35;14.57;;;;;;;18.23;73.30;94151.28;5073210;27;20808;-85
2021/05/26 05:33:59;;;;;;;18.27;14.80;;;;;;;18.14;72.97;94132.66;5033616;28;20037;-88
2021/05/26 05:36:25;;;;;;;16.88;14.93;;;;;;;18.17;72.46;94131.22;5039093;28;20048;-86
2021/05/26 05:38:50;;;;;;;19.05;15.98;;;;;;;18.52;72.81;94145.84;5016041;28;20038;-89
2021/05/26 05:41:16;;;;;;;17.10;15.18;;;;;;;18.68;71.84;94145.25;5008234;28;20120;-83
2021/05/26 05:43:41;;;;;;;21.48;14.73;;;;;;;18.79;70.47;94151.78;5016462;28;20049;-86
2021/05/26 05:46:06;;;;;;;14.85;13.35;;;;;;;18.76;69.60;94141.72;5037706;28;20021;-85
2021/05/26 05:48:32;;;;;;;15.65;12.63;;;;;;;18.65;69.64;94127.19;5055478;28;20401;-85
2021/05/26 05:50:57;;;;;;;17.50;13.25;;;;;;;18.90;69.24;94147.56;5019864;28;20193;-85
2021/05/26 05:53:23;;;;;;;12.82;11.23;;;;;;;19.11;68.15;94161.66;5021188;28;20383;-85
2021/05/26 05:55:48;;;;;;;17.25;11.82;;;;;;;19.22;67.81;94165.47;5017106;28;20041;-87
2021/05/26 05:58:22;;;;;;;14.38;11.30;;;;;;;19.15;67.77;94157.22;5018131;28;20014;-85
2021/05/26 06:00:47;;;;;;;13.45;10.70;;;;;;;19.14;66.57;94158.31;5019958;28;20033;-84
2021/05/26 06:03:13;;;;;;;13.57;10.75;;;;;;;19.07;66.16;94158.06;5011996;28;20045;-82
2021/05/26 06:05:38;;;;;;;14.38;10.57;;;;;;;19.11;66.31;94158.97;5032017;28;20107;-86
2021/05/26 06:08:04;;;;;;;15.32;10.63;;;;;;;19.18;66.08;94153.84;5029548;28;20141;-84
2021/05/26 06:10:30;;;;;;;17.77;10.50;;;;;;;19.11;65.51;94156.28;5012525;28;20073;-88
2021/05/26 06:12:57;;;;;;;13.32;10.23;;;;;;;18.99;66.50;94157.06;5009899;28;20121;-87
2021/05/26 06:15:23;;;;;;;14.30;10.20;;;;;;;18.96;65.73;94165.75;5041985;28;20051;-84
2021/05/26 06:17:48;;;;;;;16.85;10.38;;;;;;;18.92;66.49;94151.47;5022401;28;20494;-89
2021/05/26 06:20:14;;;;;;;13.77;11.23;;;;;;;19.06;66.56;94161.84;5013337;28;20034;-86
2021/05/26 06:22:39;;;;;;;12.90;10.77;;;;;;;19.00;66.44;94153.28;5014039;28;20041;-88
2021/05/26 06:25:05;;;;;;;16.73;10.60;;;;;;;19.06;66.36;94177.94;5016046;28;20029;-85
2021/05/26 06:27:31;;;;;;;18.92;10.50;;;;;;;19.00;65.97;94173.94;5034310;28;20021;-88
2021/05/26 06:29:56;;;;;;;12.77;10.20;;;;;;;18.93;66.63;94181.72;5032185;28;20110;-85
2021/05/26 06:32:22;;;;;;;13.80;10.02;;;;;;;18.87;65.84;94181.13;5023983;28;20102;-88
2021/05/26 06:34:50;;;;;;;12.10;9.45;;;;;;;18.84;66.14;94171.09;5014180;28;20124;-85
2021/05/26 06:37:15;;;;;;;14.07;10.75;;;;;;;18.71;67.04;94150.75;5018979;28;20037;-87
2021/05/26 06:39:41;;;;;;;12.40;10.10;;;;;;;18.76;66.31;94152.44;5054288;28;20025;-87
2021/05/26 06:42:06;;;;;;;11.30;10.05;;;;;;;18.89;66.87;94167.41;5008912;28;20049;-84
2021/05/26 06:44:32;;;;;;;11.90;9.90;;;;;;;18.85;66.17;94163.84;5015605;28;20406;-87
2021/05/26 06:46:58;;;;;;;14.40;9.57;;;;;;;18.99;65.03;94167.00;5015368;28;20056;-88
2021/05/26 06:49:23;;;;;;;12.40;9.32;;;;;;;19.09;64.93;94155.84;5004672;28;20721;-87
2021/05/26 06:51:48;;;;;;;11.88;9.82;;;;;;;19.23;65.05;94136.78;5002007;28;20057;-85
2021/05/26 06:54:14;;;;;;;12.48;9.15;;;;;;;19.26;63.81;94139.56;4994087;28;20491;-86
2021/05/26 06:56:39;;;;;;;14.23;8.55;;;;;;;19.49;63.63;94144.53;5014303;28;20490;-86
2021/05/26 06:59:05;;;;;;;13.05;8.10;;;;;;;19.55;63.97;94114.47;5021675;28;20583;-85
2021/05/26 07:01:30;;;;;;;12.55;8.27;;;;;;;20.01;62.40;94142.69;5024019;28;20604;-88
2021/05/26 07:03:56;;;;;;;11.38;8.82;;;;;;;20.20;62.22;94142.84;5023589;28;20124;-88
2021/05/26 07:06:21;;;;;;;10.52;8.27;;;;;;;20.43;60.97;94143.13;5005460;28;20869;-87
2021/05/26 07:08:47;;;;;;;14.93;9.68;;;;;;;20.39;60.79;94125.34;5014896;28;20520;-86
2021/05/26 07:11:12;;;;;;;13.20;10.00;;;;;;;20.45;59.69;94129.38;5023676;28;20525;-87
2021/05/26 07:13:38;;;;;;;12.60;8.45;;;;;;;20.60;59.79;94136.69;5016400;28;20120;-87
2021/05/26 07:16:05;;;;;;;14.10;8.45;;;;;;;20.70;58.93;94141.56;5004904;28;20113;-86
2021/05/26 07:18:32;;;;;;;15.55;8.60;;;;;;;20.61;58.78;94138.25;5006545;28;20018;-84
2021/05/26 07:20:57;;;;;;;10.35;8.25;;;;;;;20.49;59.27;94141.75;4995950;28;20068;-85
2021/05/26 07:23:23;;;;;;;11.48;9.20;;;;;;;20.45;59.26;94134.75;5009984;28;20494;-86
2021/05/26 07:25:48;;;;;;;14.05;9.05;;;;;;;20.25;59.82;94126.50;5014994;28;20116;-86
2021/05/26 07:28:14;;;;;;;10.38;9.13;;;;;;;20.37;60.14;94138.38;5004912;28;20049;-87
2021/05/26 07:30:40;;;;;;;12.27;8.60;;;;;;;20.40;60.47;94148.41;5023261;28;20041;-88
2021/05/26 07:33:06;;;;;;;18.35;10.68;;;;;;;20.25;60.57;94131.88;5004503;28;20041;-88
2021/05/26 07:35:32;;;;;;;11.73;9.30;;;;;;;20.25;60.99;94141.81;5002029;28;20092;-89
2021/05/26 07:37:57;;;;;;;14.90;9.30;;;;;;;20.14;60.82;94130.00;5010857;28;20068;-86
2021/05/26 07:40:23;;;;;;;13.85;9.30;;;;;;;19.96;61.36;94112.63;5036082;28;20641;-88
2021/05/26 07:42:49;;;;;;;12.52;8.52;;;;;;;19.97;61.01;94131.06;5003508;28;20034;-86
2021/05/26 07:45:14;;;;;;;12.20;8.35;;;;;;;20.03;61.27;94137.75;5020723;28;20120;-88
2021/05/26 07:47:40;;;;;;;11.23;8.02;;;;;;;20.17;60.66;94146.22;5007272;28;20034;-87
2021/05/26 07:50:06;;;;;;;8.27;7.53;;;;;;;20.20;59.48;94125.97;5000859;28;20038;-87
2021/05/26 07:52:31;;;;;;;13.43;7.07;;;;;;;20.28;59.20;94131.19;5005653;28;20049;-86
2021/05/26 07:54:58;;;;;;;9.30;7.43;;;;;;;20.25;58.36;94123.03;5022767;28;20378;-86
2021/05/26 07:57:24;;;;;;;8.18;6.60;;;;;;;20.27;58.12;94121.59;5002822;28;20143;-88
2021/05/26 07:59:49;;;;;;;8.45;6.63;;;;;;;20.44;58.58;94133.94;5000458;28;20118;-88
2021/05/26 08:02:15;;;;;;;12.15;6.60;;;;;;;20.58;58.68;94133.56;5000342;28;20037;-88
2021/05/26 08:04:41;;;;;;;7.95;6.43;;;;;;;20.69;57.52;94113.16;4994269;28;20498;-85
2021/05/26 08:07:10;;;;;;;8.13;6.60;;;;;;;20.90;57.74;94111.03;4991494;28;20028;-90
2021/05/26 08:09:37;;;;;;;13.00;6.72;;;;;;;21.06;56.54;94129.84;5024454;28;20470;-88
2021/05/26 08:12:04;;;;;;;9.80;6.10;;;;;;;21.21;56.38;94117.56;5004962;28;20046;-86
2021/05/26 08:14:32;;;;;;;10.70;5.63;;;;;;;21.53;55.51;94121.78;5002261;28;20507;-86
2021/05/26 08:16:59;;;;;;;6.28;5.13;;;;;;;21.84;54.59;94120.97;4997983;28;20042;-88
2021/05/26 08:19:25;;;;;;;12.43;5.85;;;;;;;21.98;54.01;94108.63;4993815;28;20379;-88
2021/05/26 08:21:50;;;;;;;7.75;6.13;;;;;;;22.14;54.15;94111.25;5004848;28;20033;-86
2021/05/26 08:24:17;;;;;;;10.38;5.95;;;;;;;22.34;53.39;94118.19;5017988;28;20516;-88
2021/05/26 08:26:43;;;;;;;11.63;5.72;;;;;;;22.37;53.57;94109.44;5022095;28;20129;-88
2021/05/26 08:29:08;;;;;;;9.70;6.22;;;;;;;22.50;52.34;94117.34;5012300;28;20038;-88
2021/05/26 08:31:34;;;;;;;6.70;5.20;;;;;;;22.14;52.14;94076.25;5000864;28;20062;-87
2021/05/26 08:34:00;;;;;;;9.88;6.40;;;;;;;22.13;53.39;94093.56;5002197;28;20025;-88
2021/05/26 08:36:25;;;;;;;8.73;5.30;;;;;;;22.44;53.74;94109.56;5021618;28;20457;-87
2021/05/26 08:38:53;;;;;;;9.85;5.55;;;;;;;22.66;52.96;94124.22;5019944;28;20052;-87
2021/05/26 08:41:21;;;;;;;6.53;5.07;;;;;;;22.69;51.20;94114.63;5011361;28;20052;-87
2021/05/26 08:43:47;;;;;;;7.30;5.22;;;;;;;22.68;51.45;94113.84;4999159;28;20046;-87
2021/05/26 08:46:13;;;;;;;12.40;6.10;;;;;;;22.88;52.29;94112.72;5001121;28;20044;-87
2021/05/26 08:48:39;;;;;;;7.15;5.57;;;;;;;22.69;51.53;94083.09;5004783;28;20022;-87
2021/05/26 08:51:06;;;;;;;6.43;5.20;;;;;;;22.93;51.96;94113.56;4991283;28;20095;-84
2021/05/26 08:53:34;;;;;;;5.75;5.10;;;;;;;23.14;52.10;94103.16;5010362;28;20514;-87
2021/05/26 08:55:59;;;;;;;10.07;5.53;;;;;;;23.14;51.02;94108.53;5026891;28;20680;-86
2021/05/26 08:58:25;;;;;;;7.75;6.57;;;;;;;23.31;51.71;94108.06;5021984;28;20045;-86
2021/05/26 09:00:50;;;;;;;8.48;6.00;;;;;;;23.17;51.09;94075.47;5023289;28;20441;-87
2021/05/26 09:03:16;;;;;;;9.55;5.72;;;;;;;23.39;51.14;94084.69;5021159;28;20325;-87
2021/05/26 09:05:44;;;;;;;8.75;5.57;;;;;;;23.70;50.38;94106.75;5019706;28;20042;-86
2021/05/26 09:08:20;;;;;;;11.93;5.95;;;;;;;23.90;50.07;94112.03;5019587;28;20108;-87
2021/05/26 09:10:47;;;;;;;9.90;6.50;;;;;;;23.87;50.09;94102.00;5021359;28;20037;-88
2021/05/26 09:13:38;;;;;;;11.20;6.80;;;;;;;24.00;49.93;94101.41;5018304;28;20056;-87
2021/05/26 09:16:10;;;;;;;6.28;5.68;;;;;;;23.90;49.23;94093.16;5022749;28;20033;-88
2021/05/26 09:18:54;;;;;;;10.65;7.50;;;;;;;23.63;50.14;94095.88;5022393;28;20465;-88
2021/05/26 09:21:58;;;;;;;8.70;7.80;;;;;;;23.87;50.81;94097.38;5015744;28;20103;-87
2021/05/26 09:24:23;;;;;;;8.98;8.07;;;;;;;24.02;50.42;94099.13;4988891;28;20161;-87
2021/05/26 09:26:49;;;;;;;9.32;6.93;;;;;;;24.32;49.44;94088.34;5015054;28;20037;-87
2021/05/26 09:29:15;;;;;;;14.00;8.00;;;;;;;24.40;49.52;94070.28;5011026;28;20721;-87
2021/05/26 09:31:40;;;;;;;8.98;8.13;;;;;;;24.60;49.89;94064.34;5001545;28;20378;-87
2021/05/26 09:34:06;;;;;;;9.40;8.50;;;;;;;24.71;49.09;94059.06;4998761;28;20049;-87
2021/05/26 09:36:32;;;;;;;9.32;8.38;;;;;;;25.06;48.49;94069.47;5003081;28;20105;-87
2021/05/26 09:39:04;;;;;;;11.40;8.52;;;;;;;25.23;48.45;94058.00;5016842;28;21034;-87
2021/05/26 09:41:34;;;;;;;12.85;9.70;;;;;;;25.69;46.95;94069.22;5020489;28;20037;-87
2021/05/26 09:44:09;;;;;;;14.77;10.20;;;;;;;25.76;47.24;94065.75;5011496;28;20041;-87
2021/05/26 09:46:37;;;;;;;17.42;9.63;;;;;;;25.62;47.39;94030.47;5000722;28;20038;-86
2021/05/26 09:49:15;;;;;;;10.77;9.07;;;;;;;26.11;47.08;94057.03;5000613;28;20018;-87
2021/05/26 09:51:52;;;;;;;10.80;8.57;;;;;;;26.36;45.90;94055.25;5002036;28;20101;-87
2021/05/26 09:54:19;;;;;;;11.32;8.35;;;;;;;26.55;46.14;94059.56;5019395;28;20059;-86
2021/05/26 09:57:08;;;;;;;11.55;8.48;;;;;;;26.78;45.44;94049.16;5005987;28;20145;-87
2021/05/26 09:59:35;;;;;;;9.93;8.30;;;;;;;26.92;44.41;94057.38;5007028;28;20069;-87
2021/05/26 10:02:06;;;;;;;12.45;8.45;;;;;;;26.88;44.49;94043.00;5008364;28;20616;-87
2021/05/26 10:04:31;;;;;;;12.73;8.65;;;;;;;26.64;44.25;94049.91;5035648;28;20560;-87
2021/05/26 10:06:59;;;;;;;12.73;7.70;;;;;;;26.67;44.33;94034.81;5023136;28;20033;-87
2021/05/26 10:09:25;;;;;;;10.68;9.32;;;;;;;26.42;44.73;94006.88;5009840;28;20037;-88
2021/05/26 10:11:55;;;;;;;9.73;8.75;;;;;;;26.48;46.55;94037.88;5006025;28;20037;-85
2021/05/26 10:14:23;;;;;;;13.95;8.88;;;;;;;26.50;45.49;94035.53;4999371;28;20159;-88
2021/05/26 10:16:51;;;;;;;10.45;9.25;;;;;;;26.18;45.15;94009.09;5000186;28;20318;-88
2021/05/26 10:19:17;;;;;;;15.55;9.00;;;;;;;26.46;45.95;94034.75;5006071;28;20053;-86
2021/05/26 10:21:46;;;;;;;13.60;9.07;;;;;;;26.22;46.84;94018.03;5025427;28;20474;-87
